Terminal Aerodrome Forecast
Issued by NWS

Home | Current Version | Previous Version | Text Only | Print | Product List | Glossary On
Versions: 1 2 3 4 5 6 7 8 9 10 11 12 13 14 15 16 17 18
000
FTUS46 KSTO 281700
TAFSCK
TAF
KSCK 281724Z 2818/2918 VRB03KT 1/2SM FG OVC002
      TEMPO 2818/2819 1/4SM FG VV001
     FM281900 VRB03KT 2SM BR SKC
     FM282100 VRB04KT 4SM HZ BKN250
     FM291200 VRB04KT 3SM RA OVC030=

USA.gov is the U.S. government's official web portal to all federal, state and local government web resources and services.